Flight Track Log - Related Links

Times and Time Zones

All times are in EDT time to prevent confusion due to time zone crossing. See the N85TB flight status page for this flight to view local times or setup timezone preferences in your user account.

Time Position Orientation Groundspeed Altitude Reporting Facility
EDT Latitude Longitude Course Direction KTS MPH feet Rate Location/Type
Tue 12:23:53 AM 44.2875 -121.0017 270° West 142 163 6,100  Level Seattle Center
Tue 12:24:54 AM 44.2825 -121.0567 263° West 143 165 7,800 1,488 Climbing Seattle Center
Tue 12:25:54 AM 44.2747 -121.1094 258° West 140 161 9,100 1,388 Climbing Seattle Center
Tue 12:26:55 AM 44.2742 -121.1589 269° West 133 153 10,600 1,525 Climbing Seattle Center
Tue 12:27:56 AM 44.2706 -121.2181 265° West 130 150 12,200 1,279 Climbing Seattle Center
Tue 12:28:57 AM 44.2917 -121.2639 303° West 155 178 13,200 885 Climbing Seattle Center
Tue 12:29:00 AM 44.2500 -121.3022 270° West  Level FlightAware Approximate
Tue 12:29:58 AM 44.3222 -121.3039 317° Northwest 151 174 14,000  Level Seattle Center
Tue 12:30:58 AM 44.3600 -121.3544 316° Northwest 180 207 14,000  Level Seattle Center
Tue 12:31:59 AM 44.4006 -121.4053 318° Northwest 192 221 14,000  Level Seattle Center
Tue 12:33:00 AM 44.4397 -121.4594 315° West 197 227 14,000  Level Seattle Center
Tue 12:34:01 AM 44.4806 -121.5111 318° Northwest 198 228 14,000  Level Seattle Center
Tue 12:35:01 AM 44.5208 -121.5628 318° Northwest 198 228 14,000  Level Seattle Center
Tue 12:36:02 AM 44.5606 -121.6150 317° Northwest 197 227 14,000  Level Seattle Center
Tue 12:37:03 AM 44.6003 -121.6692 316° Northwest 198 228 14,000  Level Seattle Center
Tue 12:38:04 AM 44.6411 -121.7203 318° Northwest 197 227 14,000  Level Seattle Center
Tue 12:39:04 AM 44.6803 -121.7747 315° West 197 227 14,000  Level Seattle Center
Tue 12:40:05 AM 44.7200 -121.8267 317° Northwest 196 226 14,000  Level Seattle Center
Tue 12:41:06 AM 44.7583 -121.8811 315° West 196 226 14,000  Level Seattle Center
Tue 12:42:06 AM 44.8008 -121.9350 318° Northwest 200 230 14,000  Level Seattle Center
Tue 12:43:07 AM 44.8411 -121.9908 316° Northwest 201 231 14,000 -492 Level Seattle Center
Tue 12:44:08 AM 44.8856 -122.0494 317° Northwest 210 242 13,000 -1,068 Descending Seattle Center
Tue 12:45:05 AM 44.9364 -122.1189 316° Northwest 234 269 11,900 -1,220 Descending Seattle Center
Tue 12:46:06 AM 44.9819 -122.1825 315° West 237 273 10,600 -1,279 Descending Seattle Center

Login

Don't have an account? Register now (free) for customized features, flight alerts, and more!